Time;durP1;ratioP1;P1;durP2;ratioP2;P2;SDS_P1;SDS_P2;PMS_P1;PMS_P2;Temp;Humidity;BMP_temperature;BMP_pressure;BME280_temperature;BME280_humidity;BME280_pressure;Samples;Min_cycle;Max_cycle;Signal;HPM_P1;HPM_P2
2024/04/11 00:02:10;;;;;;;;;;;8.00;73.60;;;;;;5413311;26;19967;-66
2024/04/11 00:04:46;;;;;;;;;;;8.00;73.70;;;;;;5423011;26;19961;-67
2024/04/11 00:07:22;;;;;;;;;;;7.90;73.60;;;;;;5418916;26;19929;-66
2024/04/11 00:09:57;;;;;;;;;;;7.90;73.90;;;;;;5403723;26;19937;-66
2024/04/11 00:12:29;;;;;;;;;;;7.90;73.70;;;;;;5404139;26;19996;-66
2024/04/11 00:15:05;;;;;;;;;;;7.80;73.70;;;;;;5425998;26;19937;-67
2024/04/11 00:17:37;;;;;;;;;;;7.80;73.80;;;;;;5413762;26;20453;-67
2024/04/11 00:20:06;;;;;;;;;;;7.90;73.80;;;;;;5410339;26;20006;-67
2024/04/11 00:22:42;;;;;;;;;;;7.80;73.50;;;;;;5414707;26;19937;-66
2024/04/11 00:25:17;;;;;;;;;;;7.70;73.90;;;;;;5414557;26;19936;-65
2024/04/11 00:27:49;;;;;;;;;;;7.70;73.90;;;;;;5418507;26;20023;-66
2024/04/11 00:30:25;;;;;;;;;;;7.70;74.10;;;;;;5403087;26;19941;-66
2024/04/11 00:32:59;;;;;;;;;;;7.70;73.90;;;;;;5417836;26;20012;-67
2024/04/11 00:35:28;;;;;;;;;;;7.70;74.00;;;;;;5411046;26;19929;-67
2024/04/11 00:38:03;;;;;;;;;;;7.60;74.30;;;;;;5414887;26;19937;-67
2024/04/11 00:40:38;;;;;;;;;;;7.60;74.30;;;;;;5425095;26;20405;-67
2024/04/11 00:43:17;;;;;;;;;;;7.50;74.30;;;;;;5418500;26;19979;-65
2024/04/11 00:45:52;;;;;;;;;;;7.50;74.30;;;;;;5414561;26;19929;-67
2024/04/11 00:48:26;;;;;;;;;;;7.50;74.30;;;;;;5424919;26;19929;-66
2024/04/11 00:51:01;;;;;;;;;;;7.50;74.20;;;;;;5404395;26;19937;-71
2024/04/11 00:53:37;;;;;;;;;;;7.40;74.40;;;;;;5409539;26;19929;-72
2024/04/11 00:56:12;;;;;;;;;;;7.40;74.40;;;;;;5410570;26;20006;-70
2024/04/11 00:58:38;;;;;;;;;;;7.30;74.60;;;;;;5413284;26;19948;-69
2024/04/11 01:01:13;;;;;;;;;;;7.30;74.80;;;;;;5413618;26;19928;-72
2024/04/11 01:03:46;;;;;;;;;;;7.20;74.60;;;;;;5398307;26;19929;-71
2024/04/11 01:06:21;;;;;;;;;;;7.30;74.50;;;;;;5422994;26;19928;-71
2024/04/11 01:08:58;;;;;;;;;;;7.20;74.50;;;;;;5412496;26;20220;-72
2024/04/11 01:11:33;;;;;;;;;;;7.20;74.70;;;;;;5418397;26;19928;-71
2024/04/11 01:14:05;;;;;;;;;;;7.10;74.90;;;;;;5418360;26;19929;-71
2024/04/11 01:16:41;;;;;;;;;;;7.20;74.80;;;;;;5416505;26;19929;-71
2024/04/11 01:19:13;;;;;;;;;;;7.20;74.60;;;;;;5408511;26;19929;-71
2024/04/11 01:21:49;;;;;;;;;;;7.10;74.70;;;;;;5415383;26;19937;-71
2024/04/11 01:24:24;;;;;;;;;;;7.10;74.60;;;;;;5419022;26;19928;-70
2024/04/11 01:26:59;;;;;;;;;;;7.10;74.80;;;;;;5418811;26;20019;-70
2024/04/11 01:29:39;;;;;;;;;;;7.00;74.60;;;;;;5412950;26;19953;-71
2024/04/11 01:32:14;;;;;;;;;;;7.00;74.70;;;;;;5414885;26;19929;-71
2024/04/11 01:34:46;;;;;;;;;;;7.00;74.70;;;;;;5422398;26;19935;-71
2024/04/11 01:37:21;;;;;;;;;;;7.00;74.70;;;;;;5417685;26;19999;-70
2024/04/11 01:39:56;;;;;;;;;;;6.90;74.70;;;;;;5416319;26;19995;-71
2024/04/11 01:42:31;;;;;;;;;;;6.90;74.70;;;;;;5449494;26;19948;-70
2024/04/11 01:45:03;;;;;;;;;;;6.80;74.70;;;;;;5444716;26;19937;-71
2024/04/11 01:47:40;;;;;;;;;;;6.80;74.60;;;;;;5456874;26;19997;-71
2024/04/11 01:50:12;;;;;;;;;;;6.80;74.70;;;;;;5456753;26;19957;-71
2024/04/11 01:52:48;;;;;;;;;;;6.70;74.60;;;;;;5457005;26;19929;-70
2024/04/11 01:55:23;;;;;;;;;;;6.70;74.60;;;;;;5443271;26;19927;-71
2024/04/11 01:57:58;;;;;;;;;;;6.70;74.70;;;;;;5450337;26;19936;-71
2024/04/11 02:00:36;;;;;;;;;;;6.70;74.60;;;;;;5454100;26;19928;-72
2024/04/11 02:25:40;;;;;;;;;;;6.40;75.00;;;;;;5422113;26;21840;-63
2024/04/11 02:28:13;;;;;;;;;;;6.30;75.10;;;;;;5462701;26;19928;-65
2024/04/11 02:30:42;;;;;;;;;;;6.40;75.10;;;;;;5458696;26;20011;-64
2024/04/11 02:33:14;;;;;;;;;;;6.40;75.00;;;;;;5464673;26;19935;-64
2024/04/11 02:35:50;;;;;;;;;;;6.30;75.10;;;;;;5462126;26;20030;-64
2024/04/11 02:38:25;;;;;;;;;;;6.20;75.20;;;;;;5465868;26;19928;-64
2024/04/11 02:41:06;;;;;;;;;;;6.20;75.20;;;;;;5465462;26;19936;-64
2024/04/11 02:43:46;;;;;;;;;;;6.20;75.30;;;;;;5464567;26;19928;-64
2024/04/11 02:46:21;;;;;;;;;;;6.20;75.20;;;;;;5461709;26;19956;-64
2024/04/11 02:48:53;;;;;;;;;;;6.20;75.20;;;;;;5464335;26;20079;-64
2024/04/11 02:51:29;;;;;;;;;;;6.20;75.20;;;;;;5466236;26;19928;-64
2024/04/11 02:54:11;;;;;;;;;;;6.20;75.10;;;;;;5453733;26;20260;-64
2024/04/11 02:56:46;;;;;;;;;;;6.20;75.20;;;;;;5466010;26;19935;-62
2024/04/11 02:59:21;;;;;;;;;;;6.20;75.20;;;;;;5459868;26;20280;-64
2024/04/11 03:01:57;;;;;;;;;;;6.10;75.30;;;;;;5465565;26;19935;-63
2024/04/11 03:04:32;;;;;;;;;;;6.10;75.40;;;;;;5462939;26;20299;-63
2024/04/11 03:07:04;;;;;;;;;;;6.10;75.30;;;;;;5467003;26;19928;-63
2024/04/11 03:09:41;;;;;;;;;;;6.00;75.30;;;;;;5462180;26;19939;-64
2024/04/11 03:12:17;;;;;;;;;;;6.00;75.30;;;;;;5464415;26;20324;-66
2024/04/11 03:14:52;;;;;;;;;;;6.00;75.30;;;;;;5461762;26;19927;-67
2024/04/11 03:17:25;;;;;;;;;;;6.00;75.40;;;;;;5464819;26;19935;-66
2024/04/11 03:20:01;;;;;;;;;;;5.90;75.30;;;;;;5451989;26;19960;-66
2024/04/11 03:22:34;;;;;;;;;;;5.90;75.40;;;;;;5409198;26;20294;-66
2024/04/11 03:25:09;;;;;;;;;;;5.90;75.50;;;;;;5418268;26;19936;-66
2024/04/11 03:27:44;;;;;;;;;;;5.90;75.50;;;;;;5417765;26;19929;-66
2024/04/11 03:30:19;;;;;;;;;;;5.90;75.40;;;;;;5410674;26;19948;-67
2024/04/11 03:32:51;;;;;;;;;;;5.90;75.50;;;;;;5420591;26;20251;-67
2024/04/11 03:35:27;;;;;;;;;;;5.90;75.40;;;;;;5411510;26;19929;-65
2024/04/11 03:37:59;;;;;;;;;;;5.80;75.40;;;;;;5411770;26;19936;-66
2024/04/11 03:40:35;;;;;;;;;;;5.80;75.40;;;;;;5417454;26;19935;-67
2024/04/11 03:43:13;;;;;;;;;;;5.80;75.50;;;;;;5419114;26;19936;-67
2024/04/11 03:45:50;;;;;;;;;;;5.70;75.70;;;;;;5411536;26;19928;-66
2024/04/11 03:48:25;;;;;;;;;;;5.80;75.60;;;;;;5419455;26;19940;-66
2024/04/11 03:51:00;;;;;;;;;;;5.70;75.50;;;;;;5422663;26;19928;-67
2024/04/11 03:53:39;;;;;;;;;;;5.70;75.50;;;;;;5408903;26;19937;-66
2024/04/11 03:56:18;;;;;;;;;;;5.70;75.50;;;;;;5423384;26;19929;-67
2024/04/11 03:58:56;;;;;;;;;;;5.70;75.50;;;;;;5416265;26;19936;-67
2024/04/11 04:01:31;;;;;;;;;;;5.70;75.70;;;;;;5421769;26;20008;-65
2024/04/11 04:04:03;;;;;;;;;;;5.70;75.60;;;;;;5428269;26;19929;-66
2024/04/11 04:06:42;;;;;;;;;;;5.70;75.50;;;;;;5457015;26;19928;-66
2024/04/11 04:09:15;;;;;;;;;;;5.70;75.50;;;;;;5444254;26;19972;-66
2024/04/11 04:11:50;;;;;;;;;;;5.70;75.60;;;;;;5449110;26;19944;-66
2024/04/11 04:14:25;;;;;;;;;;;5.60;75.60;;;;;;5444085;26;19935;-66
2024/04/11 04:17:00;;;;;;;;;;;5.60;75.70;;;;;;5456027;26;20355;-66
2024/04/11 04:19:32;;;;;;;;;;;5.50;75.80;;;;;;5451234;26;19962;-66
2024/04/11 04:22:13;;;;;;;;;;;5.50;75.90;;;;;;5461956;26;19965;-62
2024/04/11 04:24:48;;;;;;;;;;;5.50;76.10;;;;;;5450480;26;19935;-63
2024/04/11 04:27:25;;;;;;;;;;;5.50;75.90;;;;;;5456803;26;19997;-61
2024/04/11 04:30:00;;;;;;;;;;;5.50;75.90;;;;;;5458862;26;19932;-61
2024/04/11 04:32:36;;;;;;;;;;;5.40;76.00;;;;;;5458962;26;19949;-62
2024/04/11 04:35:09;;;;;;;;;;;5.40;76.00;;;;;;5459318;26;19947;-66
2024/04/11 04:37:45;;;;;;;;;;;5.40;76.10;;;;;;5460719;26;19936;-63
2024/04/11 04:40:17;;;;;;;;;;;5.40;76.10;;;;;;5455340;26;19927;-62
2024/04/11 04:43:02;;;;;;;;;;;5.40;76.20;;;;;;5460452;26;20268;-61
2024/04/11 04:45:37;;;;;;;;;;;5.40;76.10;;;;;;5452779;26;19936;-62
2024/04/11 04:48:11;;;;;;;;;;;5.40;76.10;;;;;;5460616;26;19961;-64
2024/04/11 04:50:44;;;;;;;;;;;5.40;76.10;;;;;;5422675;26;19936;-62
2024/04/11 04:53:20;;;;;;;;;;;5.40;76.10;;;;;;5423815;26;20268;-63
2024/04/11 04:55:59;;;;;;;;;;;5.30;76.10;;;;;;5423356;26;19936;-62
2024/04/11 04:58:34;;;;;;;;;;;5.40;76.20;;;;;;5421178;26;19937;-62
2024/04/11 05:01:10;;;;;;;;;;;5.40;76.30;;;;;;5414145;26;19939;-62
2024/04/11 05:03:46;;;;;;;;;;;5.40;76.20;;;;;;5418633;26;19928;-63
2024/04/11 05:06:19;;;;;;;;;;;5.40;76.30;;;;;;5422928;26;19972;-63
2024/04/11 05:08:55;;;;;;;;;;;5.40;76.50;;;;;;5422244;26;20034;-62
2024/04/11 05:11:31;;;;;;;;;;;5.40;76.40;;;;;;5426673;26;19941;-62
2024/04/11 05:14:07;;;;;;;;;;;5.40;76.50;;;;;;5417559;26;19936;-63
2024/04/11 05:16:43;;;;;;;;;;;5.40;76.60;;;;;;5404098;26;19937;-63
2024/04/11 05:19:18;;;;;;;;;;;5.50;76.70;;;;;;5412868;26;20011;-62
2024/04/11 05:21:45;;;;;;;;;;;5.50;76.60;;;;;;5402333;26;20027;-61
2024/04/11 05:24:27;;;;;;;;;;;5.50;76.70;;;;;;5421997;26;19929;-62
2024/04/11 05:26:59;;;;;;;;;;;5.50;76.70;;;;;;5414015;26;19929;-62
2024/04/11 05:29:36;;;;;;;;;;;5.50;77.00;;;;;;5412367;26;20256;-63
2024/04/11 05:32:11;;;;;;;;;;;5.60;76.90;;;;;;5411633;26;19936;-67
2024/04/11 05:34:49;;;;;;;;;;;5.60;77.10;;;;;;5425223;26;19932;-65
2024/04/11 05:37:22;;;;;;;;;;;5.70;77.00;;;;;;5410763;26;19935;-66
2024/04/11 05:39:57;;;;;;;;;;;5.70;77.00;;;;;;5408122;26;19933;-65
2024/04/11 05:42:30;;;;;;;;;;;5.70;77.00;;;;;;5415506;26;19944;-67
2024/04/11 05:45:07;;;;;;;;;;;5.80;77.00;;;;;;5411806;26;19933;-66
2024/04/11 05:47:43;;;;;;;;;;;5.90;76.90;;;;;;5417408;26;19929;-66
2024/04/11 05:50:19;;;;;;;;;;;5.90;77.00;;;;;;5415425;26;20978;-64
2024/04/11 05:52:52;;;;;;;;;;;5.90;77.10;;;;;;5418184;26;19938;-66
2024/04/11 05:55:34;;;;;;;;;;;5.90;77.30;;;;;;5419027;26;19940;-65
2024/04/11 05:58:06;;;;;;;;;;;5.90;77.30;;;;;;5422425;26;19936;-66
2024/04/11 06:00:48;;;;;;;;;;;6.00;77.40;;;;;;5410007;26;19937;-65
2024/04/11 06:03:23;;;;;;;;;;;6.10;77.30;;;;;;5416300;26;19941;-66
2024/04/11 06:05:58;;;;;;;;;;;6.20;77.20;;;;;;5414414;26;19935;-65
2024/04/11 06:08:30;;;;;;;;;;;6.10;77.10;;;;;;5426074;26;19935;-65
2024/04/11 06:11:07;;;;;;;;;;;6.20;77.50;;;;;;5419060;26;19928;-64
2024/04/11 06:13:39;;;;;;;;;;;6.30;77.70;;;;;;5410882;26;19937;-65
2024/04/11 06:16:15;;;;;;;;;;;6.30;77.40;;;;;;5413902;26;20328;-66
2024/04/11 06:18:54;;;;;;;;;;;6.30;77.70;;;;;;5423504;26;19929;-65
2024/04/11 06:21:36;;;;;;;;;;;6.50;77.50;;;;;;5431614;26;19929;-65
2024/04/11 06:24:08;;;;;;;;;;;6.60;77.00;;;;;;5420848;26;19940;-67
2024/04/11 06:26:45;;;;;;;;;;;6.60;77.10;;;;;;5420568;26;19961;-64
2024/04/11 06:29:22;;;;;;;;;;;6.70;76.80;;;;;;5420061;26;20433;-65
2024/04/11 06:32:01;;;;;;;;;;;6.80;77.30;;;;;;5415380;26;20295;-65
2024/04/11 06:34:36;;;;;;;;;;;6.80;76.80;;;;;;5419197;26;20263;-65
2024/04/11 06:37:12;;;;;;;;;;;7.00;76.60;;;;;;5412144;26;19940;-64
2024/04/11 06:39:44;;;;;;;;;;;7.10;76.60;;;;;;5410193;26;20379;-63
2024/04/11 06:42:27;;;;;;;;;;;7.20;76.80;;;;;;5418860;26;20429;-72
2024/04/11 06:44:59;;;;;;;;;;;7.40;76.70;;;;;;5417697;26;19936;-71
2024/04/11 06:47:35;;;;;;;;;;;7.60;76.90;;;;;;5416053;26;19939;-72
2024/04/11 06:50:10;;;;;;;;;;;7.80;76.80;;;;;;5424483;26;20268;-72
2024/04/11 06:52:45;;;;;;;;;;;7.90;75.90;;;;;;5414781;26;19936;-72
2024/04/11 06:55:19;;;;;;;;;;;8.00;75.80;;;;;;5418567;26;20272;-72
2024/04/11 06:57:56;;;;;;;;;;;8.20;76.10;;;;;;5417158;26;19965;-73
2024/04/11 07:00:36;;;;;;;;;;;8.30;75.50;;;;;;5417736;26;19945;-73
2024/04/11 07:03:16;;;;;;;;;;;8.40;75.50;;;;;;5416163;26;19929;-70
2024/04/11 07:05:55;;;;;;;;;;;8.60;75.50;;;;;;5420958;26;19983;-72
2024/04/11 07:08:32;;;;;;;;;;;8.80;75.10;;;;;;5421419;26;19937;-73
2024/04/11 07:11:18;;;;;;;;;;;8.90;74.50;;;;;;5417877;26;19936;-73
2024/04/11 07:13:55;;;;;;;;;;;8.90;74.10;;;;;;5454103;26;20279;-72
2024/04/11 07:16:29;;;;;;;;;;;9.00;73.60;;;;;;5453050;26;20037;-72
2024/04/11 07:19:04;;;;;;;;;;;9.10;73.30;;;;;;5447292;26;19939;-71
2024/04/11 07:21:43;;;;;;;;;;;9.20;72.90;;;;;;5422314;26;19928;-73
2024/04/11 07:24:23;;;;;;;;;;;9.30;72.60;;;;;;5420729;26;19940;-73
2024/04/11 07:26:56;;;;;;;;;;;9.40;72.20;;;;;;5421410;26;19929;-74
2024/04/11 07:29:32;;;;;;;;;;;9.60;71.60;;;;;;5420429;26;20010;-73
2024/04/11 07:32:05;;;;;;;;;;;9.80;71.20;;;;;;5418669;26;19937;-73
2024/04/11 07:34:40;;;;;;;;;;;10.10;70.80;;;;;;5419059;26;20378;-73
2024/04/11 07:37:17;;;;;;;;;;;10.40;70.20;;;;;;5418551;26;19928;-73
2024/04/11 07:39:53;;;;;;;;;;;10.60;69.80;;;;;;5416349;26;20439;-73
2024/04/11 07:42:48;;;;;;;;;;;10.80;69.50;;;;;;5421290;26;20424;-72
2024/04/11 07:45:25;;;;;;;;;;;11.00;68.40;;;;;;5420909;26;20358;-75
2024/04/11 07:47:59;;;;;;;;;;;11.30;67.30;;;;;;5455940;26;19928;-73
2024/04/11 07:50:34;;;;;;;;;;;11.50;66.70;;;;;;5453197;26;19929;-65
2024/04/11 07:53:14;;;;;;;;;;;11.70;66.60;;;;;;5453389;26;19937;-65
2024/04/11 07:55:55;;;;;;;;;;;11.90;65.80;;;;;;5452012;26;19928;-65
2024/04/11 07:58:28;;;;;;;;;;;12.10;65.30;;;;;;5449745;26;19929;-65
2024/04/11 08:01:04;;;;;;;;;;;12.30;65.10;;;;;;5444542;26;19928;-64
2024/04/11 08:03:37;;;;;;;;;;;12.50;64.40;;;;;;5447983;26;19946;-65
2024/04/11 08:06:14;;;;;;;;;;;12.70;64.30;;;;;;5448740;26;19935;-64
2024/04/11 08:08:49;;;;;;;;;;;12.90;63.60;;;;;;5454381;26;19935;-64
2024/04/11 08:11:27;;;;;;;;;;;13.10;62.90;;;;;;5461793;26;19940;-65
2024/04/11 08:14:00;;;;;;;;;;;13.20;63.00;;;;;;5463942;26;20340;-64
2024/04/11 08:16:36;;;;;;;;;;;13.50;62.70;;;;;;5453544;26;19936;-64
2024/04/11 08:19:09;;;;;;;;;;;13.60;62.50;;;;;;5456337;26;19936;-64
2024/04/11 08:21:51;;;;;;;;;;;13.70;62.10;;;;;;5453159;26;19928;-65
2024/04/11 08:24:26;;;;;;;;;;;13.80;61.40;;;;;;5458160;26;19965;-65
2024/04/11 08:27:03;;;;;;;;;;;13.90;61.40;;;;;;5461567;26;19928;-65
2024/04/11 08:29:35;;;;;;;;;;;14.10;61.60;;;;;;5415358;26;19940;-65
2024/04/11 08:32:13;;;;;;;;;;;14.20;61.10;;;;;;5416108;26;19936;-65
2024/04/11 08:34:46;;;;;;;;;;;14.40;60.90;;;;;;5417378;26;19929;-66
2024/04/11 08:37:22;;;;;;;;;;;14.60;60.30;;;;;;5422630;26;19929;-65
2024/04/11 08:39:57;;;;;;;;;;;14.70;60.00;;;;;;5419694;26;20008;-65
2024/04/11 08:42:33;;;;;;;;;;;14.90;59.40;;;;;;5429191;26;19944;-65
2024/04/11 08:45:06;;;;;;;;;;;14.90;58.90;;;;;;5414059;26;19929;-64
2024/04/11 08:47:42;;;;;;;;;;;15.00;58.50;;;;;;5417866;26;20341;-65
2024/04/11 08:50:15;;;;;;;;;;;15.30;58.40;;;;;;5418863;26;19928;-64
2024/04/11 08:52:53;;;;;;;;;;;15.60;58.20;;;;;;5424020;26;19936;-64
2024/04/11 08:55:29;;;;;;;;;;;15.80;57.20;;;;;;5419917;26;19928;-65
2024/04/11 08:58:05;;;;;;;;;;;16.10;56.80;;;;;;5416913;26;19998;-65
2024/04/11 09:00:39;;;;;;;;;;;16.30;56.00;;;;;;5420835;26;19929;-61
2024/04/11 09:03:15;;;;;;;;;;;16.50;54.90;;;;;;5419660;26;19933;-61
2024/04/11 09:05:48;;;;;;;;;;;16.70;52.90;;;;;;5416841;26;20333;-61
2024/04/11 09:08:25;;;;;;;;;;;16.80;52.00;;;;;;5433908;26;19940;-61
2024/04/11 09:11:00;;;;;;;;;;;17.00;50.80;;;;;;5451307;26;19996;-60
2024/04/11 09:13:36;;;;;;;;;;;17.10;50.20;;;;;;5445897;26;19948;-59
2024/04/11 09:16:09;;;;;;;;;;;17.30;49.40;;;;;;5449579;26;19958;-62
2024/04/11 09:18:46;;;;;;;;;;;17.40;49.70;;;;;;5439754;26;19936;-62
2024/04/11 09:21:28;;;;;;;;;;;17.60;48.80;;;;;;5450943;26;19936;-61
2024/04/11 09:24:04;;;;;;;;;;;17.70;48.10;;;;;;5454758;26;19937;-61
2024/04/11 09:26:39;;;;;;;;;;;17.80;48.00;;;;;;5456868;26;20441;-60
2024/04/11 09:29:14;;;;;;;;;;;18.00;47.40;;;;;;5459240;26;19934;-61
2024/04/11 09:31:47;;;;;;;;;;;18.10;47.20;;;;;;5453819;26;19952;-61
2024/04/11 09:34:26;;;;;;;;;;;18.20;46.40;;;;;;5456352;26;19940;-61
2024/04/11 09:36:59;;;;;;;;;;;18.40;45.90;;;;;;5455022;26;19928;-61
2024/04/11 09:39:49;;;;;;;;;;;18.50;46.30;;;;;;5455085;26;20054;-60
2024/04/11 09:42:26;;;;;;;;;;;18.50;45.40;;;;;;5457089;26;19936;-61
2024/04/11 09:45:03;;;;;;;;;;;18.60;45.10;;;;;;5453881;26;19939;-61
2024/04/11 09:47:38;;;;;;;;;;;18.70;45.00;;;;;;5416335;26;20355;-60
2024/04/11 09:50:09;;;;;;;;;;;18.90;44.60;;;;;;5430671;26;20383;-61
2024/04/11 09:52:44;;;;;;;;;;;18.90;44.00;;;;;;5419047;26;19929;-60
2024/04/11 09:55:33;;;;;;;;;;;18.90;43.50;;;;;;5428497;26;19936;-61
2024/04/11 09:58:08;;;;;;;;;;;19.00;43.10;;;;;;5430091;26;19928;-61
2024/04/11 10:01:04;;;;;;;;;;;19.10;42.60;;;;;;5425010;26;19933;-60
2024/04/11 10:03:39;;;;;;;;;;;19.20;42.40;;;;;;5432848;26;19936;-61
2024/04/11 10:06:13;;;;;;;;;;;19.30;42.50;;;;;;5425623;26;19928;-61
2024/04/11 10:08:47;;;;;;;;;;;19.50;42.80;;;;;;5402628;26;20224;-61
2024/04/11 10:11:22;;;;;;;;;;;19.60;43.10;;;;;;5420763;26;19940;-63
2024/04/11 10:14:02;;;;;;;;;;;19.80;42.80;;;;;;5420473;26;20039;-63
2024/04/11 10:16:48;;;;;;;;;;;19.90;42.80;;;;;;5410987;26;19938;-63
2024/04/11 10:19:21;;;;;;;;;;;20.00;42.30;;;;;;5419306;26;19945;-62
2024/04/11 10:22:04;;;;;;;;;;;20.00;42.50;;;;;;5415944;26;19941;-63
2024/04/11 10:24:37;;;;;;;;;;;20.10;43.00;;;;;;5424387;26;19940;-63
2024/04/11 10:27:13;;;;;;;;;;;20.30;42.90;;;;;;5430840;26;19937;-62
2024/04/11 10:29:50;;;;;;;;;;;20.30;42.50;;;;;;5412745;26;19936;-63
2024/04/11 10:32:26;;;;;;;;;;;20.30;41.10;;;;;;5410372;26;19937;-63
2024/04/11 10:34:58;;;;;;;;;;;20.40;41.10;;;;;;5423675;26;19929;-63
2024/04/11 10:37:35;;;;;;;;;;;20.40;42.40;;;;;;5417979;26;19928;-63
2024/04/11 10:40:10;;;;;;;;;;;20.30;41.90;;;;;;5416724;26;19929;-63
2024/04/11 10:42:39;;;;;;;;;;;20.10;41.80;;;;;;5420345;26;19939;-63
2024/04/11 10:45:17;;;;;;;;;;;20.00;41.60;;;;;;5428027;26;19943;-63
2024/04/11 10:47:52;;;;;;;;;;;19.90;42.40;;;;;;5428840;26;19937;-63
2024/04/11 10:50:27;;;;;;;;;;;19.90;41.50;;;;;;5415572;26;19936;-63
2024/04/11 10:53:05;;;;;;;;;;;20.00;42.80;;;;;;5417409;26;19929;-63
2024/04/11 10:55:43;;;;;;;;;;;19.90;42.30;;;;;;5431375;26;19928;-63
2024/04/11 10:58:22;;;;;;;;;;;19.90;42.50;;;;;;5456262;26;19993;-73
2024/04/11 11:01:07;;;;;;;;;;;20.00;42.60;;;;;;5456529;26;19932;-66
2024/04/11 11:03:46;;;;;;;;;;;20.00;42.30;;;;;;5415646;26;20348;-63
2024/04/11 11:06:30;;;;;;;;;;;20.10;42.80;;;;;;5420910;26;19936;-63
2024/04/11 11:09:13;;;;;;;;;;;20.10;43.10;;;;;;5448416;26;19948;-63
2024/04/11 11:11:46;;;;;;;;;;;20.10;42.40;;;;;;5452935;26;20052;-63
2024/04/11 11:14:24;;;;;;;;;;;20.00;41.50;;;;;;5455837;26;19936;-63
2024/04/11 11:17:07;;;;;;;;;;;19.80;41.80;;;;;;5445758;26;20415;-63
2024/04/11 11:19:42;;;;;;;;;;;19.80;42.00;;;;;;5448115;26;19928;-62
2024/04/11 11:22:18;;;;;;;;;;;19.70;41.90;;;;;;5454749;26;19997;-73
2024/04/11 11:24:53;;;;;;;;;;;19.70;42.10;;;;;;5459267;26;20026;-72
2024/04/11 11:27:28;;;;;;;;;;;19.80;42.10;;;;;;5456381;26;19929;-72
2024/04/11 11:30:06;;;;;;;;;;;19.70;41.90;;;;;;5451672;26;19936;-73
2024/04/11 11:32:41;;;;;;;;;;;19.80;42.40;;;;;;5436168;26;19981;-71
2024/04/11 11:35:18;;;;;;;;;;;19.80;42.00;;;;;;5416762;26;20260;-73
2024/04/11 11:37:50;;;;;;;;;;;19.80;41.80;;;;;;5420099;26;19929;-73
2024/04/11 11:40:38;;;;;;;;;;;19.80;42.60;;;;;;5433268;26;19944;-75
2024/04/11 11:43:17;;;;;;;;;;;19.90;42.00;;;;;;5424286;26;19940;-73
2024/04/11 11:48:52;;;;;;;;;;;19.90;41.30;;;;;;5455178;26;19936;-78
2024/04/11 11:51:28;;;;;;;;;;;20.00;42.60;;;;;;5473755;26;19935;-73
2024/04/11 11:54:12;;;;;;;;;;;20.00;42.30;;;;;;5478075;26;19936;-73
2024/04/11 11:56:44;;;;;;;;;;;19.90;40.90;;;;;;5469952;26;19928;-72
2024/04/11 11:59:20;;;;;;;;;;;19.80;41.30;;;;;;5474397;26;19928;-72
2024/04/11 12:01:58;;;;;;;;;;;19.80;41.10;;;;;;5472455;26;20019;-73
2024/04/11 12:04:38;;;;;;;;;;;19.90;40.20;;;;;;5472893;26;19928;-72
2024/04/11 12:07:12;;;;;;;;;;;19.80;41.00;;;;;;5476725;26;19921;-71
2024/04/11 12:10:12;;;;;;;;;;;19.90;41.30;;;;;;5482550;26;19936;-74
2024/04/11 12:12:43;;;;;;;;;;;19.80;41.70;;;;;;5477910;26;19948;-73
2024/04/11 12:15:18;;;;;;;;;;;19.80;41.70;;;;;;5478504;26;19936;-72
2024/04/11 12:17:51;;;;;;;;;;;19.70;41.70;;;;;;5472629;26;19928;-72
2024/04/11 12:20:31;;;;;;;;;;;19.60;41.30;;;;;;5470260;26;19929;-73
2024/04/11 12:23:06;;;;;;;;;;;19.70;41.50;;;;;;5430397;26;19965;-72
2024/04/11 12:25:41;;;;;;;;;;;19.60;42.00;;;;;;5467426;26;19929;-73
2024/04/11 12:28:16;;;;;;;;;;;19.60;42.50;;;;;;5463394;26;19936;-73
2024/04/11 12:30:59;;;;;;;;;;;19.60;42.40;;;;;;5461516;26;20331;-62
2024/04/11 12:33:32;;;;;;;;;;;19.60;42.80;;;;;;5465635;26;19928;-62
2024/04/11 12:36:42;;;;;;;;;;;19.60;43.00;;;;;;5464401;26;19929;-61
2024/04/11 12:39:12;;;;;;;;;;;19.60;42.20;;;;;;5463301;26;20267;-63
2024/04/11 12:41:50;;;;;;;;;;;19.50;42.00;;;;;;5460683;26;19961;-62
2024/04/11 12:44:36;;;;;;;;;;;19.50;42.30;;;;;;5461289;26;19929;-60
2024/04/11 12:47:23;;;;;;;;;;;19.50;42.50;;;;;;5463173;26;19968;-64
2024/04/11 12:49:58;;;;;;;;;;;19.40;42.20;;;;;;5467032;26;20028;-62
2024/04/11 12:52:40;;;;;;;;;;;19.40;41.80;;;;;;5461186;26;19960;-62
2024/04/11 12:55:26;;;;;;;;;;;19.50;42.30;;;;;;5463509;26;20023;-62
2024/04/11 12:58:06;;;;;;;;;;;19.50;42.40;;;;;;5451972;26;21409;-62
2024/04/11 13:00:43;;;;;;;;;;;19.50;42.40;;;;;;5451536;26;19929;-62
2024/04/11 13:03:19;;;;;;;;;;;19.40;41.80;;;;;;5405695;26;19935;-62
2024/04/11 13:05:52;;;;;;;;;;;19.40;41.70;;;;;;5410831;26;19936;-62
2024/04/11 13:08:45;;;;;;;;;;;19.40;42.10;;;;;;5419685;26;20453;-62
2024/04/11 13:11:36;;;;;;;;;;;19.40;41.80;;;;;;5425051;26;19945;-62
2024/04/11 13:14:17;;;;;;;;;;;19.40;41.60;;;;;;5425717;26;19929;-63
2024/04/11 13:17:00;;;;;;;;;;;19.40;41.70;;;;;;5424499;26;20265;-62
2024/04/11 13:19:39;;;;;;;;;;;19.30;42.60;;;;;;5427520;26;19936;-61
2024/04/11 13:22:12;;;;;;;;;;;19.30;42.10;;;;;;5422634;26;19949;-63
2024/04/11 13:24:59;;;;;;;;;;;19.20;42.00;;;;;;5424549;26;19940;-63
2024/04/11 13:27:37;;;;;;;;;;;19.20;42.50;;;;;;5420897;26;19929;-62
2024/04/11 13:30:15;;;;;;;;;;;19.20;42.10;;;;;;5426208;26;19969;-63
2024/04/11 13:32:48;;;;;;;;;;;19.20;42.30;;;;;;5426840;26;20412;-61
2024/04/11 13:38:17;;;;;;;;;;;19.10;42.90;;;;;;5424704;26;19929;-64
2024/04/11 13:41:15;;;;;;;;;;;19.10;42.50;;;;;;5429410;26;19929;-70
2024/04/11 13:43:52;;;;;;;;;;;19.10;42.60;;;;;;5422543;26;19945;-71
2024/04/11 13:46:34;;;;;;;;;;;19.10;42.70;;;;;;5426657;26;19936;-71
2024/04/11 13:52:18;;;;;;;;;;;19.10;42.70;;;;;;5414810;26;19929;-71
2024/04/11 13:54:57;;;;;;;;;;;19.10;42.10;;;;;;5422237;26;19933;-71
2024/04/11 13:57:35;;;;;;;;;;;19.10;42.30;;;;;;5424266;26;19933;-72
2024/04/11 14:00:09;;;;;;;;;;;19.10;42.70;;;;;;5420823;26;20025;-73
2024/04/11 14:02:58;;;;;;;;;;;19.10;43.20;;;;;;5409465;26;19929;-72
2024/04/11 14:05:45;;;;;;;;;;;19.10;42.80;;;;;;5416254;26;19936;-71
2024/04/11 14:08:20;;;;;;;;;;;19.10;42.90;;;;;;5431773;26;20271;-73
2024/04/11 14:10:53;;;;;;;;;;;19.00;42.40;;;;;;5417352;26;20002;-72
2024/04/11 14:13:41;;;;;;;;;;;18.90;43.00;;;;;;5425458;26;19935;-72
2024/04/11 14:16:14;;;;;;;;;;;18.80;43.00;;;;;;5425610;26;19940;-73
2024/04/11 14:18:50;;;;;;;;;;;18.70;43.30;;;;;;5427605;26;19929;-71
2024/04/11 14:21:48;;;;;;;;;;;18.60;43.20;;;;;;5423560;26;19935;-73
2024/04/11 14:24:34;;;;;;;;;;;18.60;43.50;;;;;;5425124;26;19937;-72
2024/04/11 14:27:07;;;;;;;;;;;18.50;43.30;;;;;;5423754;26;19929;-73
2024/04/11 14:29:46;;;;;;;;;;;18.50;43.40;;;;;;5423010;26;19933;-72
2024/04/11 14:32:29;;;;;;;;;;;18.50;43.80;;;;;;5425873;26;19937;-73
2024/04/11 14:35:22;;;;;;;;;;;18.50;44.00;;;;;;5425009;26;19963;-72
2024/04/11 14:38:07;;;;;;;;;;;18.50;44.20;;;;;;5428490;26;19937;-73
2024/04/11 14:40:49;;;;;;;;;;;18.60;44.00;;;;;;5430069;26;19936;-72
2024/04/11 14:43:30;;;;;;;;;;;18.60;43.70;;;;;;5431060;26;19952;-73
2024/04/11 14:46:13;;;;;;;;;;;18.60;43.90;;;;;;5429937;26;19936;-72
2024/04/11 14:48:45;;;;;;;;;;;18.60;43.80;;;;;;5430542;26;19999;-72
2024/04/11 14:51:26;;;;;;;;;;;18.60;44.00;;;;;;5428994;26;19937;-62
2024/04/11 14:53:59;;;;;;;;;;;18.50;43.70;;;;;;5431421;26;19973;-63
2024/04/11 14:56:41;;;;;;;;;;;18.40;43.80;;;;;;5426975;26;19929;-63
2024/04/11 14:59:15;;;;;;;;;;;18.40;43.90;;;;;;5419270;26;20363;-63
2024/04/11 15:01:44;;;;;;;;;;;18.30;43.90;;;;;;5420334;26;20267;-62
2024/04/11 15:04:20;;;;;;;;;;;18.30;44.20;;;;;;5418197;26;20361;-62
2024/04/11 15:06:55;;;;;;;;;;;18.20;44.10;;;;;;5429689;26;19956;-62
2024/04/11 15:09:34;;;;;;;;;;;18.10;44.00;;;;;;5425597;26;20491;-62
2024/04/11 15:12:13;;;;;;;;;;;18.10;43.80;;;;;;5415498;26;19929;-62
2024/04/11 15:14:47;;;;;;;;;;;18.00;43.40;;;;;;5428335;26;19928;-63
2024/04/11 15:17:25;;;;;;;;;;;17.90;43.20;;;;;;5425741;26;19960;-63
2024/04/11 15:20:09;;;;;;;;;;;17.90;43.30;;;;;;5422482;26;20279;-63
2024/04/11 15:22:48;;;;;;;;;;;17.80;43.50;;;;;;5427594;26;19929;-63
2024/04/11 15:25:28;;;;;;;;;;;17.70;43.60;;;;;;5427917;26;19953;-63
2024/04/11 15:28:05;;;;;;;;;;;17.70;43.50;;;;;;5425178;26;19936;-62
2024/04/11 15:31:11;;;;;;;;;;;17.70;43.80;;;;;;5418977;26;19932;-62
2024/04/11 15:33:54;;;;;;;;;;;17.70;44.00;;;;;;5411145;26;19936;-63
2024/04/11 15:36:34;;;;;;;;;;;17.70;43.80;;;;;;5428884;26;19929;-63
2024/04/11 15:39:16;;;;;;;;;;;17.70;44.20;;;;;;5421100;26;19928;-62
2024/04/11 15:41:56;;;;;;;;;;;17.70;44.00;;;;;;5413080;26;19929;-62
2024/04/11 15:44:37;;;;;;;;;;;17.70;43.90;;;;;;5427710;26;19968;-63
2024/04/11 15:47:15;;;;;;;;;;;17.70;44.00;;;;;;5441930;26;19997;-62
2024/04/11 15:49:57;;;;;;;;;;;17.70;43.60;;;;;;5429541;26;19928;-62
2024/04/11 15:52:31;;;;;;;;;;;17.60;43.70;;;;;;5424551;26;19941;-62